createdAt,value
2018-01-24T00:01:30.713Z,87.50
2018-01-24T00:03:59.809Z,87.33
2018-01-24T00:06:28.115Z,87.19
2018-01-24T00:08:56.433Z,86.98
2018-01-24T00:11:24.747Z,86.92
2018-01-24T00:13:53.077Z,86.70
2018-01-24T00:16:23.143Z,86.55
2018-01-24T00:18:51.463Z,86.54
2018-01-24T00:21:20.059Z,86.44
2018-01-24T00:23:48.409Z,86.26
2018-01-24T00:26:16.707Z,86.29
2018-01-24T00:28:45.879Z,86.25
2018-01-24T00:31:14.203Z,86.21
2018-01-24T00:33:42.517Z,86.17
2018-01-24T00:36:10.821Z,86.08
2018-01-24T00:38:39.161Z,86.06
2018-01-24T00:41:07.450Z,86.08
2018-01-24T00:43:35.813Z,86.05
2018-01-24T00:46:04.197Z,86.12
2018-01-24T00:48:32.540Z,86.12
2018-01-24T00:51:00.879Z,86.16
2018-01-24T00:53:29.186Z,86.01
2018-01-24T00:55:57.539Z,86.01
2018-01-24T00:58:25.848Z,85.92
2018-01-24T01:00:54.151Z,85.99
2018-01-24T01:03:22.473Z,86.02
2018-01-24T01:05:50.758Z,85.87
2018-01-24T01:08:19.288Z,85.99
2018-01-24T01:10:47.607Z,86.03
2018-01-24T01:13:15.918Z,86.03
2018-01-24T01:15:44.221Z,86.03
2018-01-24T01:18:12.531Z,86.00
2018-01-24T01:20:41.663Z,86.00
2018-01-24T01:23:10.053Z,85.99
2018-01-24T01:25:38.535Z,85.98
2018-01-24T01:28:06.838Z,85.95
2018-01-24T01:30:35.131Z,85.97
2018-01-24T01:33:03.478Z,85.95
2018-01-24T01:35:31.796Z,86.08
2018-01-24T01:38:00.093Z,86.04
2018-01-24T01:40:28.429Z,86.01
2018-01-24T01:42:56.727Z,86.00
2018-01-24T01:45:25.039Z,85.97
2018-01-24T01:47:53.347Z,85.89
2018-01-24T01:50:22.426Z,85.97
2018-01-24T01:52:50.738Z,86.01
2018-01-24T01:55:19.152Z,85.97
2018-01-24T01:57:47.518Z,85.91
2018-01-24T02:00:15.811Z,85.98
2018-01-24T02:02:44.197Z,85.94
2018-01-24T02:05:12.513Z,85.89
2018-01-24T02:07:40.841Z,85.87
2018-01-24T02:10:09.117Z,85.81
2018-01-24T02:12:38.429Z,85.89
2018-01-24T02:15:06.813Z,85.87
2018-01-24T02:17:35.103Z,85.81
2018-01-24T02:20:03.387Z,85.88
2018-01-24T02:22:31.758Z,85.89
2018-01-24T02:25:00.085Z,85.92
2018-01-24T02:27:28.418Z,85.95
2018-01-24T02:29:56.806Z,85.88
2018-01-24T02:32:25.110Z,85.89
2018-01-24T02:34:53.826Z,85.81
2018-01-24T02:37:22.089Z,85.79
2018-01-24T02:39:50.417Z,85.79
2018-01-24T02:42:19.500Z,85.81
2018-01-24T02:44:47.807Z,85.78
2018-01-24T02:47:16.895Z,85.76
2018-01-24T02:49:45.961Z,85.63
2018-01-24T02:52:14.329Z,85.63
2018-01-24T02:54:43.378Z,85.61
2018-01-24T02:57:12.519Z,85.47
2018-01-24T02:59:41.160Z,85.50
2018-01-24T03:02:10.237Z,85.52
2018-01-24T03:04:38.557Z,85.49
2018-01-24T03:07:06.887Z,85.47
2018-01-24T03:09:35.195Z,85.53
2018-01-24T03:12:03.560Z,85.67
2018-01-24T03:14:31.944Z,85.80
2018-01-24T03:17:00.259Z,85.95
2018-01-24T03:19:29.352Z,86.09
2018-01-24T03:21:57.688Z,86.32
2018-01-24T03:24:26.029Z,86.47
2018-01-24T03:26:54.334Z,86.55
2018-01-24T03:29:23.550Z,86.71
2018-01-24T03:31:51.851Z,86.87
2018-01-24T03:34:20.156Z,87.03
2018-01-24T03:36:50.026Z,86.97
2018-01-24T03:39:18.389Z,87.13
2018-01-24T03:41:46.774Z,87.27
2018-01-24T03:44:15.306Z,87.30
2018-01-24T03:46:43.621Z,87.32
2018-01-24T03:49:12.708Z,87.26
2018-01-24T03:51:41.778Z,87.16
2018-01-24T03:54:10.067Z,87.13
2018-01-24T03:56:40.660Z,87.16
2018-01-24T03:59:09.010Z,86.97
2018-01-24T04:01:38.111Z,86.82
2018-01-24T04:04:07.223Z,86.74
2018-01-24T04:06:35.628Z,86.63
2018-01-24T04:09:03.926Z,86.55
2018-01-24T04:11:32.262Z,86.52
2018-01-24T04:14:02.135Z,86.41
2018-01-24T04:16:31.232Z,86.28
2018-01-24T04:18:59.549Z,86.15
2018-01-24T04:21:27.869Z,86.05
2018-01-24T04:23:56.171Z,85.91
2018-01-24T04:26:24.506Z,85.65
2018-01-24T04:28:52.841Z,85.63
2018-01-24T04:31:21.938Z,85.53
2018-01-24T04:33:50.238Z,85.34
2018-01-24T04:36:18.573Z,85.24
2018-01-24T04:38:46.898Z,85.19
2018-01-24T04:41:15.263Z,85.00
2018-01-24T04:43:43.622Z,84.88
2018-01-24T04:46:12.002Z,84.78
2018-01-24T04:48:40.312Z,84.74
2018-01-24T04:51:08.618Z,84.62
2018-01-24T04:53:36.933Z,84.50
2018-01-24T04:56:06.046Z,84.47
2018-01-24T04:58:34.404Z,84.43
2018-01-24T05:01:03.496Z,84.54
2018-01-24T05:03:31.792Z,84.58
2018-01-24T05:06:00.868Z,84.65
2018-01-24T05:08:29.202Z,84.72
2018-01-24T05:10:57.504Z,84.74
2018-01-24T05:13:25.855Z,84.79
2018-01-24T05:15:54.868Z,85.11
2018-01-24T05:18:23.236Z,85.44
2018-01-24T05:20:51.888Z,85.68
2018-01-24T05:23:20.202Z,85.92
2018-01-24T05:25:48.592Z,86.08
2018-01-24T05:28:16.903Z,86.27
2018-01-24T05:30:45.244Z,86.44
2018-01-24T05:33:13.544Z,86.62
2018-01-24T05:35:41.852Z,86.78
2018-01-24T05:38:10.164Z,86.89
2018-01-24T05:40:38.508Z,86.90
2018-01-24T05:43:06.866Z,86.87
2018-01-24T05:45:35.204Z,86.95
2018-01-24T05:48:03.521Z,86.91
2018-01-24T05:50:32.116Z,86.86
2018-01-24T05:53:00.501Z,86.80
2018-01-24T05:55:28.804Z,86.82
2018-01-24T05:57:57.181Z,86.77
2018-01-24T06:00:25.738Z,86.62
2018-01-24T06:02:54.884Z,86.55
2018-01-24T06:05:23.192Z,86.44
2018-01-24T06:07:51.494Z,86.31
2018-01-24T06:10:20.604Z,86.18
2018-01-24T06:12:48.914Z,86.07
2018-01-24T06:15:17.242Z,85.96
2018-01-24T06:17:45.604Z,85.91
2018-01-24T06:20:14.054Z,85.92
2018-01-24T06:22:42.426Z,85.74
2018-01-24T06:25:10.722Z,85.65
2018-01-24T06:27:39.034Z,85.55
2018-01-24T06:30:07.334Z,85.39
2018-01-24T06:32:35.668Z,85.35
2018-01-24T06:35:04.104Z,85.26
2018-01-24T06:37:32.436Z,85.20
2018-01-24T06:40:00.782Z,85.07
2018-01-24T06:42:29.845Z,85.04
2018-01-24T06:44:58.162Z,84.97
2018-01-24T06:47:27.288Z,84.74
2018-01-24T06:49:55.640Z,84.71
2018-01-24T06:52:24.708Z,84.82
2018-01-24T06:54:53.022Z,84.96
2018-01-24T06:57:22.090Z,85.17
2018-01-24T06:59:50.429Z,85.14
2018-01-24T07:02:18.754Z,84.99
2018-01-24T07:04:47.400Z,84.88
2018-01-24T07:07:15.708Z,84.78
2018-01-24T07:09:44.360Z,84.72
2018-01-24T07:12:30.460Z,84.61
2018-01-24T07:14:58.770Z,84.46
2018-01-24T07:17:27.106Z,84.33
2018-01-24T07:19:56.206Z,84.26
2018-01-24T07:22:25.423Z,84.15
2018-01-24T07:24:53.748Z,84.10
2018-01-24T07:27:22.060Z,84.10
2018-01-24T07:29:51.134Z,84.09
2018-01-24T07:32:19.465Z,84.06
2018-01-24T07:34:47.766Z,84.04
2018-01-24T07:37:16.097Z,83.98
2018-01-24T07:39:44.437Z,84.00
2018-01-24T07:42:12.850Z,84.14
2018-01-24T07:44:41.178Z,84.43
2018-01-24T07:47:09.511Z,84.64
2018-01-24T07:49:37.832Z,84.64
2018-01-24T07:52:06.972Z,84.68
2018-01-24T07:54:35.534Z,84.80
2018-01-24T07:57:03.840Z,84.63
2018-01-24T07:59:32.194Z,84.38
2018-01-24T08:02:00.484Z,84.32
2018-01-24T08:04:28.781Z,84.32
2018-01-24T08:06:57.159Z,84.34
2018-01-24T08:09:25.491Z,84.30
2018-01-24T08:11:54.575Z,84.27
2018-01-24T08:14:22.879Z,84.14
2018-01-24T08:16:51.954Z,84.20
2018-01-24T08:19:20.287Z,84.11
2018-01-24T08:21:48.613Z,83.96
2018-01-24T08:24:16.907Z,83.73
2018-01-24T08:26:45.267Z,83.59
2018-01-24T08:29:13.634Z,83.20
2018-01-24T08:31:41.979Z,82.99
2018-01-24T08:34:11.079Z,82.57
2018-01-24T08:36:39.418Z,82.50
2018-01-24T08:39:08.587Z,82.33
2018-01-24T08:41:37.056Z,82.25
2018-01-24T08:44:05.389Z,82.10
2018-01-24T08:46:33.685Z,82.09
2018-01-24T08:49:02.735Z,82.16
2018-01-24T08:51:31.124Z,82.16
2018-01-24T08:53:59.677Z,82.12
2018-01-24T08:56:28.783Z,82.09
2018-01-24T08:58:57.160Z,82.25
2018-01-24T09:01:26.254Z,82.59
2018-01-24T09:04:18.529Z,82.92
2018-01-24T09:07:10.527Z,83.11
2018-01-24T09:10:02.514Z,83.43
2018-01-24T09:12:54.326Z,83.68
2018-01-24T09:15:46.099Z,84.08
2018-01-24T09:18:37.964Z,84.33
2018-01-24T09:21:27.287Z,84.45
2018-01-24T09:24:10.723Z,84.53
2018-01-24T09:26:39.035Z,84.56
2018-01-24T09:29:07.334Z,84.64
2018-01-24T09:31:35.989Z,84.62
2018-01-24T09:34:04.285Z,84.64
2018-01-24T09:36:32.587Z,84.68
2018-01-24T09:39:01.641Z,84.76
2018-01-24T09:41:29.929Z,84.72
2018-01-24T09:43:58.252Z,84.93
2018-01-24T09:46:27.315Z,84.81
2018-01-24T09:48:55.637Z,84.92
2018-01-24T09:51:23.950Z,85.00
2018-01-24T09:53:53.125Z,85.19
2018-01-24T09:56:21.678Z,85.23
2018-01-24T09:58:50.746Z,85.45
2018-01-24T10:01:19.096Z,85.64
2018-01-24T10:03:47.399Z,85.82
2018-01-24T10:06:15.865Z,85.79
2018-01-24T10:08:44.181Z,85.84
2018-01-24T10:11:12.496Z,85.94
2018-01-24T10:13:41.556Z,86.27
2018-01-24T10:16:10.313Z,86.16
2018-01-24T10:18:38.687Z,86.30
2018-01-24T10:21:07.095Z,86.22
2018-01-24T10:23:35.657Z,86.26
2018-01-24T10:26:04.725Z,86.21
2018-01-24T10:28:33.039Z,86.27
2018-01-24T10:31:01.353Z,86.28
2018-01-24T10:33:30.171Z,86.20
2018-01-24T10:35:58.473Z,86.27
2018-01-24T10:38:26.813Z,86.25
2018-01-24T10:40:55.173Z,86.20
2018-01-24T10:43:23.521Z,86.09
2018-01-24T10:45:51.829Z,85.92
2018-01-24T10:48:20.142Z,85.93
2018-01-24T10:50:48.503Z,85.88
2018-01-24T10:53:16.801Z,85.65
2018-01-24T10:55:45.147Z,85.39
2018-01-24T10:58:18.821Z,85.22
2018-01-24T11:00:47.123Z,85.11
2018-01-24T11:03:16.195Z,85.09
2018-01-24T11:05:44.501Z,85.03
2018-01-24T11:08:13.811Z,84.67
2018-01-24T11:10:43.035Z,84.29
2018-01-24T11:13:11.345Z,84.17
2018-01-24T11:15:39.636Z,83.74
2018-01-24T11:18:07.961Z,83.61
2018-01-24T11:20:37.091Z,83.55
2018-01-24T11:23:05.382Z,83.22
2018-01-24T11:25:34.337Z,83.06
2018-01-24T11:28:02.757Z,82.75
2018-01-24T11:30:31.065Z,82.39
2018-01-24T11:32:59.369Z,82.10
2018-01-24T11:35:27.721Z,81.99
2018-01-24T11:37:56.023Z,81.61
2018-01-24T11:40:24.479Z,81.56
2018-01-24T11:42:52.804Z,81.70
2018-01-24T11:45:21.904Z,81.66
2018-01-24T11:47:51.015Z,81.45
2018-01-24T11:50:20.304Z,81.45
2018-01-24T11:52:48.638Z,81.12
2018-01-24T11:55:17.021Z,80.82
2018-01-24T11:57:45.323Z,80.62
2018-01-24T12:00:13.649Z,80.26
2018-01-24T12:02:42.734Z,80.16
2018-01-24T12:05:11.060Z,80.17
2018-01-24T12:07:39.520Z,79.66
2018-01-24T12:10:07.859Z,79.48
2018-01-24T12:12:36.194Z,79.13
2018-01-24T12:15:04.523Z,78.80
2018-01-24T12:17:32.847Z,78.51
2018-01-24T12:20:01.156Z,78.54
2018-01-24T12:22:29.586Z,78.80
2018-01-24T12:24:58.316Z,78.93
2018-01-24T12:27:26.651Z,78.96
2018-01-24T12:29:54.962Z,78.51
2018-01-24T12:32:24.024Z,78.31
2018-01-24T12:34:52.356Z,77.86
2018-01-24T12:37:20.798Z,77.74
2018-01-24T12:39:49.212Z,77.87
2018-01-24T12:42:18.282Z,77.28
2018-01-24T12:44:47.404Z,76.87
2018-01-24T12:47:16.470Z,76.69
2018-01-24T12:49:44.799Z,76.01
2018-01-24T12:52:13.196Z,75.97
2018-01-24T12:54:42.468Z,75.46
2018-01-24T12:57:11.535Z,75.10
2018-01-24T12:59:39.896Z,74.90
2018-01-24T13:02:08.285Z,74.57
2018-01-24T13:04:36.645Z,74.43
2018-01-24T13:07:05.718Z,74.50
2018-01-24T13:09:35.638Z,74.53
2018-01-24T13:12:04.699Z,74.52
2018-01-24T13:14:33.079Z,74.21
2018-01-24T13:17:01.920Z,74.34
2018-01-24T13:19:30.227Z,74.56
2018-01-24T13:21:58.540Z,74.63
2018-01-24T13:24:26.855Z,74.74
2018-01-24T13:26:56.957Z,74.67
2018-01-24T13:29:25.298Z,74.83
2018-01-24T13:31:53.646Z,74.85
2018-01-24T13:34:21.996Z,75.05
2018-01-24T13:36:50.326Z,75.38
2018-01-24T13:39:18.674Z,75.62
2018-01-24T13:41:46.992Z,76.00
2018-01-24T13:44:15.316Z,76.40
2018-01-24T13:46:43.654Z,76.33
2018-01-24T13:49:11.998Z,76.23
2018-01-24T13:51:40.325Z,76.31
2018-01-24T13:54:09.498Z,76.49
2018-01-24T13:56:37.820Z,76.49
2018-01-24T13:59:06.140Z,76.54
2018-01-24T14:01:34.483Z,76.85
2018-01-24T14:04:03.714Z,76.63
2018-01-24T14:06:32.019Z,76.60
2018-01-24T14:09:00.342Z,76.76
2018-01-24T14:11:28.676Z,76.72
2018-01-24T14:13:56.975Z,76.59
2018-01-24T14:16:26.051Z,76.46
2018-01-24T14:18:54.356Z,76.75
2018-01-24T14:21:23.459Z,76.46
2018-01-24T14:23:52.416Z,76.36
2018-01-24T14:26:21.611Z,76.40
2018-01-24T14:28:50.009Z,75.99
2018-01-24T14:31:18.323Z,76.04
2018-01-24T14:33:48.039Z,76.85
2018-01-24T14:36:17.118Z,76.26
2018-01-24T14:38:45.464Z,76.19
2018-01-24T14:41:14.496Z,76.13
2018-01-24T14:43:42.820Z,76.10
2018-01-24T14:46:11.168Z,75.90
2018-01-24T14:48:40.231Z,75.98
2018-01-24T14:51:08.530Z,75.56
2018-01-24T14:53:36.878Z,75.66
2018-01-24T14:56:05.264Z,75.83
2018-01-24T14:58:33.622Z,75.66
2018-01-24T15:01:02.020Z,76.04
2018-01-24T15:03:30.356Z,76.65
2018-01-24T15:05:58.686Z,76.76
2018-01-24T15:08:27.532Z,76.74
2018-01-24T15:10:57.072Z,76.91
2018-01-24T15:13:25.421Z,76.84
2018-01-24T15:15:53.742Z,76.61
2018-01-24T15:18:22.066Z,76.75
2018-01-24T15:20:50.368Z,76.85
2018-01-24T15:23:19.461Z,76.95
2018-01-24T15:25:47.753Z,77.30
2018-01-24T15:28:17.518Z,77.60
2018-01-24T15:30:45.908Z,77.64
2018-01-24T15:33:14.227Z,77.79
2018-01-24T15:35:43.352Z,78.09
2018-01-24T15:38:11.672Z,78.72
2018-01-24T15:40:40.019Z,79.12
2018-01-24T15:43:09.088Z,79.66
2018-01-24T15:45:38.170Z,79.91
2018-01-24T15:48:06.480Z,80.05
2018-01-24T15:50:35.721Z,80.02
2018-01-24T15:53:04.072Z,79.93
2018-01-24T15:55:33.189Z,79.68
2018-01-24T15:58:01.553Z,79.53
2018-01-24T16:00:30.639Z,79.18
2018-01-24T16:02:59.856Z,78.91
2018-01-24T16:05:29.360Z,78.60
2018-01-24T16:07:59.230Z,78.35
2018-01-24T16:10:27.594Z,77.95
2018-01-24T16:12:56.013Z,77.55
2018-01-24T16:15:24.374Z,77.52
2018-01-24T16:17:52.711Z,77.64
2018-01-24T16:20:21.767Z,77.95
2018-01-24T16:22:50.075Z,78.35
2018-01-24T16:25:18.438Z,78.35
2018-01-24T16:27:46.766Z,78.47
2018-01-24T16:30:15.183Z,78.48
2018-01-24T16:32:43.494Z,78.49
2018-01-24T16:35:12.133Z,78.97
2018-01-24T16:37:40.822Z,79.34
2018-01-24T16:40:09.150Z,80.00
2018-01-24T16:42:38.381Z,80.71
2018-01-24T16:45:07.418Z,81.33
2018-01-24T16:47:35.734Z,81.78
2018-01-24T16:50:05.184Z,82.12
2018-01-24T16:52:33.580Z,82.42
2018-01-24T16:55:01.893Z,82.76
2018-01-24T16:57:30.201Z,83.23
2018-01-24T16:59:58.504Z,83.34
2018-01-24T17:02:26.842Z,83.49
2018-01-24T17:04:55.161Z,83.59
2018-01-24T17:07:24.277Z,83.52
2018-01-24T17:09:52.583Z,83.49
2018-01-24T17:12:20.916Z,83.20
2018-01-24T17:14:49.230Z,82.82
2018-01-24T17:17:17.545Z,82.66
2018-01-24T17:19:45.871Z,82.54
2018-01-24T17:22:14.966Z,82.20
2018-01-24T17:24:44.096Z,81.76
2018-01-24T17:27:12.392Z,81.38
2018-01-24T17:29:40.758Z,81.56
2018-01-24T17:32:09.076Z,81.36
2018-01-24T17:34:37.378Z,81.15
2018-01-24T17:37:05.745Z,80.94
2018-01-24T17:39:34.396Z,80.77
2018-01-24T17:42:03.378Z,80.56
2018-01-24T17:44:32.481Z,80.41
2018-01-24T17:47:00.800Z,80.69
2018-01-24T17:49:29.175Z,80.22
2018-01-24T17:51:57.499Z,79.87
2018-01-24T17:54:25.840Z,79.65
2018-01-24T17:56:54.139Z,79.51
2018-01-24T17:59:22.436Z,79.52
2018-01-24T18:01:50.796Z,79.63
2018-01-24T18:04:19.166Z,79.48
2018-01-24T18:06:47.508Z,79.23
2018-01-24T18:09:16.622Z,79.22
2018-01-24T18:11:44.945Z,79.00
2018-01-24T18:14:13.995Z,78.86
2018-01-24T18:16:43.744Z,78.81
2018-01-24T18:19:12.106Z,78.85
2018-01-24T18:21:40.413Z,79.09
2018-01-24T18:24:08.753Z,78.32
2018-01-24T18:26:37.815Z,77.61
2018-01-24T18:29:06.867Z,78.74
2018-01-24T18:31:35.172Z,79.38
2018-01-24T18:34:03.942Z,80.22
2018-01-24T18:36:32.313Z,80.95
2018-01-24T18:39:00.707Z,81.98
2018-01-24T18:41:29.090Z,82.65
2018-01-24T18:43:57.400Z,83.48
2018-01-24T18:46:25.710Z,84.30
2018-01-24T18:48:54.029Z,84.78
2018-01-24T18:51:22.341Z,85.12
2018-01-24T18:53:50.642Z,85.66
2018-01-24T18:56:18.975Z,86.00
2018-01-24T18:58:47.309Z,86.39
2018-01-24T19:01:15.636Z,86.78
2018-01-24T19:03:43.957Z,86.92
2018-01-24T19:06:12.248Z,87.19
2018-01-24T19:08:40.563Z,87.41
2018-01-24T19:11:09.619Z,87.53
2018-01-24T19:13:38.005Z,87.68
2018-01-24T19:16:06.312Z,87.97
2018-01-24T19:18:35.561Z,88.15
2018-01-24T19:21:03.858Z,88.28
2018-01-24T19:23:32.140Z,88.37
2018-01-24T19:26:00.515Z,88.60
2018-01-24T19:28:28.889Z,88.73
2018-01-24T19:30:57.190Z,88.92
2018-01-24T19:33:25.492Z,89.10
2018-01-24T19:35:53.805Z,89.26
2018-01-24T19:38:22.891Z,89.38
2018-01-24T19:40:51.923Z,89.57
2018-01-24T19:43:20.261Z,89.71
2018-01-24T19:45:48.602Z,89.81
2018-01-24T19:48:17.759Z,89.86
2018-01-24T19:50:46.554Z,89.96
2018-01-24T19:53:14.849Z,90.08
2018-01-24T19:55:44.588Z,90.15
2018-01-24T19:58:12.883Z,90.15
2018-01-24T20:00:41.242Z,90.15
2018-01-24T20:03:09.562Z,90.28
2018-01-24T20:05:37.890Z,90.30
2018-01-24T20:08:06.963Z,90.38
2018-01-24T20:10:35.285Z,90.42
2018-01-24T20:13:03.623Z,90.36
2018-01-24T20:15:31.979Z,90.43
2018-01-24T20:18:00.379Z,90.58
2018-01-24T20:20:28.749Z,90.53
2018-01-24T20:22:57.045Z,90.56
2018-01-24T20:25:25.391Z,90.51
2018-01-24T20:27:53.698Z,90.55
2018-01-24T20:30:22.008Z,90.55
2018-01-24T20:32:50.350Z,90.71
2018-01-24T20:35:18.709Z,90.80
2018-01-24T20:37:47.013Z,90.66
2018-01-24T20:40:15.315Z,90.69
2018-01-24T20:42:43.628Z,90.81
2018-01-24T20:45:12.693Z,90.78
2018-01-24T20:47:40.988Z,90.86
2018-01-24T20:50:09.276Z,90.84
2018-01-24T20:52:37.684Z,90.87
2018-01-24T20:55:07.113Z,90.86
2018-01-24T20:57:35.397Z,90.94
2018-01-24T21:00:03.735Z,90.82
2018-01-24T21:02:32.036Z,90.88
2018-01-24T21:05:00.433Z,90.78
2018-01-24T21:07:28.723Z,90.93
2018-01-24T21:09:57.099Z,90.92
2018-01-24T21:12:25.393Z,90.80
2018-01-24T21:14:53.690Z,90.84
2018-01-24T21:17:21.997Z,90.98
2018-01-24T21:19:50.325Z,90.76
2018-01-24T21:22:18.623Z,90.89
2018-01-24T21:24:46.968Z,90.86
2018-01-24T21:27:16.020Z,90.99
2018-01-24T21:30:05.003Z,90.89
2018-01-24T21:32:51.212Z,90.91
2018-01-24T21:35:38.032Z,90.89
2018-01-24T21:38:07.095Z,91.00
2018-01-24T21:40:35.392Z,90.99
2018-01-24T21:43:04.443Z,91.00
2018-01-24T21:45:32.724Z,91.15
2018-01-24T21:48:01.904Z,90.96
2018-01-24T21:50:30.190Z,91.14
2018-01-24T21:52:58.536Z,91.20
2018-01-24T21:55:26.839Z,91.11
2018-01-24T21:57:55.146Z,90.90
2018-01-24T22:00:23.480Z,90.93
2018-01-24T22:02:52.554Z,91.00
2018-01-24T22:05:20.854Z,90.84
2018-01-24T22:07:49.918Z,90.84
2018-01-24T22:10:18.225Z,90.85
2018-01-24T22:12:46.558Z,90.75
2018-01-24T22:15:14.851Z,90.75
2018-01-24T22:17:43.258Z,90.86
2018-01-24T22:20:11.580Z,90.81
2018-01-24T22:22:39.882Z,90.70
2018-01-24T22:25:08.193Z,90.72
2018-01-24T22:27:36.470Z,90.58
2018-01-24T22:30:04.766Z,90.63
2018-01-24T22:32:33.056Z,90.62
2018-01-24T22:35:01.361Z,90.48
2018-01-24T22:37:30.420Z,90.48
2018-01-24T22:39:58.732Z,90.53
2018-01-24T22:42:27.823Z,90.41
2018-01-24T22:44:56.118Z,90.50
2018-01-24T22:47:25.186Z,90.59
2018-01-24T22:49:53.482Z,90.59
2018-01-24T22:52:21.792Z,90.41
2018-01-24T22:54:50.092Z,90.43
2018-01-24T22:57:18.376Z,90.31
2018-01-24T22:59:46.668Z,90.40
2018-01-24T23:02:15.057Z,90.43
2018-01-24T23:04:43.383Z,90.34
2018-01-24T23:07:11.677Z,90.38
2018-01-24T23:09:40.740Z,90.26
2018-01-24T23:12:09.023Z,90.24
2018-01-24T23:14:37.331Z,90.31
2018-01-24T23:17:05.643Z,90.21
2018-01-24T23:19:34.053Z,90.21
2018-01-24T23:22:02.352Z,90.17
2018-01-24T23:24:30.655Z,90.10
2018-01-24T23:26:59.726Z,90.07
2018-01-24T23:29:28.025Z,90.06
2018-01-24T23:31:56.417Z,89.99
2018-01-24T23:34:25.496Z,89.89
2018-01-24T23:36:53.792Z,89.84
2018-01-24T23:39:22.190Z,89.78
2018-01-24T23:41:51.238Z,89.57
2018-01-24T23:44:19.534Z,89.60
2018-01-24T23:46:47.826Z,89.48
2018-01-24T23:49:16.744Z,89.35
2018-01-24T23:51:45.818Z,89.32
2018-01-24T23:54:14.117Z,89.10
2018-01-24T23:56:43.192Z,88.96
2018-01-24T23:59:11.478Z,88.84
